aviador You're here:

KART Decoded Metar

WATERTOWN in NY, USA
Report Time2017-09-26 02:56:00
UTC Time2017-09-26 03:31:46
Flight Rules ifr IFR
Wind070° at 03 kt
W.Decomp.*RWY 10: 2.9 kt HW 0.9 kt LCW
RWY 07: 2.9 kt HW 0.6 kt RCW
W.Rank070° ranks 19
Current wind is below 070° avg. (4.7)
Visibility3219 m
Phenomena:Mist
Clouds:N/A
CeilingNone
Temp18°C (ISA +4)
Dew Point18°C (100% RH)
QNH1016 hPa
Density Alt932 ft
Elevation328 ft
Report Wrong Elevation
Raw Report
KART 260256Z AUTO 07003KT 2SM BR CLR 18/18 A3001 RMK AO2 SLP158
T01780178 56004=

Extra information for KART:More info

Metar Taf Metar & Taf Last 4 Metars F.Rules Stats Wind Profile Meteogram Temp Stats Airport Information Weather charts Add Link Nearby VenuesMetar ALERT Operation Metar Decoded Social comments

AIRNAV info for KART